sensor_id;sensor_type;location;lat;lon;timestamp;pressure;altitude;pressure_sealevel;temperature;humidity
35778;BME280;21899;42.662;23.316;2023-08-08T00:00:08;94271.72;;;15.82;100.00
35778;BME280;21899;42.662;23.316;2023-08-08T00:02:35;94278.63;;;15.83;100.00
35778;BME280;21899;42.662;23.316;2023-08-08T00:05:00;94284.78;;;15.83;100.00
35778;BME280;21899;42.662;23.316;2023-08-08T00:07:26;94280.13;;;15.84;100.00
35778;BME280;21899;42.662;23.316;2023-08-08T00:09:55;94293.81;;;15.93;100.00
35778;BME280;21899;42.662;23.316;2023-08-08T00:12:20;94284.69;;;15.87;100.00
35778;BME280;21899;42.662;23.316;2023-08-08T00:14:45;94273.72;;;15.94;100.00
35778;BME280;21899;42.662;23.316;2023-08-08T00:17:11;94273.66;;;15.97;100.00
35778;BME280;21899;42.662;23.316;2023-08-08T00:19:36;94279.81;;;15.98;100.00
35778;BME280;21899;42.662;23.316;2023-08-08T00:22:02;94267.84;;;15.99;100.00
35778;BME280;21899;42.662;23.316;2023-08-08T00:24:28;94286.22;;;16.20;100.00
35778;BME280;21899;42.662;23.316;2023-08-08T00:26:54;94285.31;;;16.26;100.00
35778;BME280;21899;42.662;23.316;2023-08-08T00:29:19;94271.81;;;16.10;100.00
35778;BME280;21899;42.662;23.316;2023-08-08T00:31:44;94286.72;;;16.15;100.00
35778;BME280;21899;42.662;23.316;2023-08-08T00:34:10;94303.38;;;16.29;100.00
35778;BME280;21899;42.662;23.316;2023-08-08T00:36:35;94306.50;;;16.28;100.00
35778;BME280;21899;42.662;23.316;2023-08-08T00:39:00;94303.63;;;16.35;100.00
35778;BME280;21899;42.662;23.316;2023-08-08T00:41:26;94294.19;;;16.27;100.00
35778;BME280;21899;42.662;23.316;2023-08-08T00:43:51;94297.06;;;16.36;100.00
35778;BME280;21899;42.662;23.316;2023-08-08T00:46:22;94299.91;;;16.29;100.00
35778;BME280;21899;42.662;23.316;2023-08-08T00:48:50;94299.41;;;16.18;100.00
35778;BME280;21899;42.662;23.316;2023-08-08T00:51:15;94315.69;;;16.14;100.00
35778;BME280;21899;42.662;23.316;2023-08-08T00:53:42;94310.28;;;16.14;100.00
35778;BME280;21899;42.662;23.316;2023-08-08T00:56:08;94303.44;;;16.10;100.00
35778;BME280;21899;42.662;23.316;2023-08-08T00:58:34;94304.63;;;16.09;100.00
35778;BME280;21899;42.662;23.316;2023-08-08T01:00:59;94317.91;;;16.19;100.00
35778;BME280;21899;42.662;23.316;2023-08-08T01:03:26;94292.63;;;16.10;100.00
35778;BME280;21899;42.662;23.316;2023-08-08T01:05:58;94312.50;;;16.19;100.00
35778;BME280;21899;42.662;23.316;2023-08-08T01:08:35;94315.78;;;16.11;100.00
35778;BME280;21899;42.662;23.316;2023-08-08T01:11:03;94308.75;;;16.13;100.00
35778;BME280;21899;42.662;23.316;2023-08-08T01:13:30;94316.44;;;16.15;100.00
35778;BME280;21899;42.662;23.316;2023-08-08T01:15:57;94324.16;;;16.16;100.00
35778;BME280;21899;42.662;23.316;2023-08-08T01:18:23;94315.34;;;16.12;100.00
35778;BME280;21899;42.662;23.316;2023-08-08T01:20:50;94312.56;;;16.16;100.00
35778;BME280;21899;42.662;23.316;2023-08-08T01:23:46;94322.03;;;16.08;100.00
35778;BME280;21899;42.662;23.316;2023-08-08T01:26:15;94332.47;;;16.22;100.00
35778;BME280;21899;42.662;23.316;2023-08-08T01:28:42;94325.56;;;16.21;100.00
35778;BME280;21899;42.662;23.316;2023-08-08T01:31:07;94319.31;;;16.08;100.00
35778;BME280;21899;42.662;23.316;2023-08-08T01:33:33;94324.53;;;15.99;100.00
35778;BME280;21899;42.662;23.316;2023-08-08T01:36:29;94332.03;;;15.91;100.00
35778;BME280;21899;42.662;23.316;2023-08-08T01:38:59;94333.25;;;15.87;100.00
35778;BME280;21899;42.662;23.316;2023-08-08T01:41:31;94341.97;;;15.94;100.00
35778;BME280;21899;42.662;23.316;2023-08-08T01:43:58;94344.91;;;15.84;100.00
35778;BME280;21899;42.662;23.316;2023-08-08T01:46:23;94353.34;;;15.86;100.00
35778;BME280;21899;42.662;23.316;2023-08-08T01:48:50;94350.78;;;15.79;100.00
35778;BME280;21899;42.662;23.316;2023-08-08T01:51:15;94364.84;;;15.90;100.00
35778;BME280;21899;42.662;23.316;2023-08-08T01:53:41;94361.09;;;15.84;100.00
35778;BME280;21899;42.662;23.316;2023-08-08T01:56:06;94360.78;;;15.82;100.00
35778;BME280;21899;42.662;23.316;2023-08-08T01:58:32;94370.56;;;15.92;100.00
35778;BME280;21899;42.662;23.316;2023-08-08T02:00:57;94368.69;;;15.89;100.00
35778;BME280;21899;42.662;23.316;2023-08-08T02:03:22;94384.66;;;15.83;100.00
35778;BME280;21899;42.662;23.316;2023-08-08T02:05:48;94375.06;;;15.79;100.00
35778;BME280;21899;42.662;23.316;2023-08-08T02:08:14;94382.69;;;15.84;100.00
35778;BME280;21899;42.662;23.316;2023-08-08T02:10:39;94377.44;;;15.77;100.00
35778;BME280;21899;42.662;23.316;2023-08-08T02:13:05;94382.53;;;15.91;100.00
35778;BME280;21899;42.662;23.316;2023-08-08T02:15:31;94381.78;;;15.90;100.00
35778;BME280;21899;42.662;23.316;2023-08-08T02:17:56;94383.38;;;15.88;100.00
35778;BME280;21899;42.662;23.316;2023-08-08T02:20:21;94396.31;;;15.96;100.00
35778;BME280;21899;42.662;23.316;2023-08-08T02:22:47;94402.59;;;16.09;100.00
35778;BME280;21899;42.662;23.316;2023-08-08T02:25:12;94383.97;;;15.95;100.00
35778;BME280;21899;42.662;23.316;2023-08-08T02:27:38;94399.59;;;15.88;100.00
35778;BME280;21899;42.662;23.316;2023-08-08T02:30:03;94409.06;;;15.96;100.00
35778;BME280;21899;42.662;23.316;2023-08-08T02:32:29;94403.31;;;15.94;100.00
35778;BME280;21899;42.662;23.316;2023-08-08T02:34:55;94406.81;;;16.10;100.00
35778;BME280;21899;42.662;23.316;2023-08-08T02:37:20;94409.25;;;16.05;100.00
35778;BME280;21899;42.662;23.316;2023-08-08T02:39:45;94397.84;;;15.97;100.00
35778;BME280;21899;42.662;23.316;2023-08-08T02:42:11;94405.16;;;15.97;100.00
35778;BME280;21899;42.662;23.316;2023-08-08T02:44:36;94411.75;;;15.96;100.00
35778;BME280;21899;42.662;23.316;2023-08-08T02:47:02;94409.75;;;16.00;100.00
35778;BME280;21899;42.662;23.316;2023-08-08T02:49:27;94417.97;;;15.93;100.00
35778;BME280;21899;42.662;23.316;2023-08-08T02:51:53;94420.19;;;15.98;100.00
35778;BME280;21899;42.662;23.316;2023-08-08T02:54:19;94420.88;;;16.02;100.00
35778;BME280;21899;42.662;23.316;2023-08-08T02:56:44;94433.81;;;15.91;100.00
35778;BME280;21899;42.662;23.316;2023-08-08T02:59:10;94438.19;;;15.85;100.00
35778;BME280;21899;42.662;23.316;2023-08-08T03:01:35;94442.63;;;15.95;100.00
35778;BME280;21899;42.662;23.316;2023-08-08T03:04:04;94434.13;;;15.96;100.00
35778;BME280;21899;42.662;23.316;2023-08-08T03:06:30;94409.84;;;15.77;100.00
35778;BME280;21899;42.662;23.316;2023-08-08T03:08:55;94425.59;;;15.98;100.00
35778;BME280;21899;42.662;23.316;2023-08-08T03:11:21;94422.00;;;15.85;100.00
35778;BME280;21899;42.662;23.316;2023-08-08T03:13:46;94428.78;;;15.93;100.00
35778;BME280;21899;42.662;23.316;2023-08-08T03:16:11;94430.56;;;15.99;100.00
35778;BME280;21899;42.662;23.316;2023-08-08T03:18:37;94438.25;;;16.01;100.00
35778;BME280;21899;42.662;23.316;2023-08-08T03:21:02;94434.19;;;15.93;100.00
35778;BME280;21899;42.662;23.316;2023-08-08T03:23:28;94433.00;;;15.94;100.00
35778;BME280;21899;42.662;23.316;2023-08-08T03:25:53;94439.59;;;15.93;100.00
35778;BME280;21899;42.662;23.316;2023-08-08T03:28:18;94433.63;;;16.01;100.00
35778;BME280;21899;42.662;23.316;2023-08-08T03:30:44;94436.94;;;16.09;100.00
35778;BME280;21899;42.662;23.316;2023-08-08T03:33:09;94432.63;;;15.92;100.00
35778;BME280;21899;42.662;23.316;2023-08-08T03:35:34;94441.97;;;16.07;100.00
35778;BME280;21899;42.662;23.316;2023-08-08T03:38:00;94437.34;;;16.07;100.00
35778;BME280;21899;42.662;23.316;2023-08-08T03:40:25;94443.66;;;16.01;100.00
35778;BME280;21899;42.662;23.316;2023-08-08T03:42:51;94441.13;;;16.10;100.00
35778;BME280;21899;42.662;23.316;2023-08-08T03:45:16;94450.78;;;16.11;100.00
35778;BME280;21899;42.662;23.316;2023-08-08T03:47:41;94450.06;;;16.07;100.00
35778;BME280;21899;42.662;23.316;2023-08-08T03:50:07;94447.25;;;16.14;100.00
35778;BME280;21899;42.662;23.316;2023-08-08T03:52:33;94447.78;;;16.05;100.00
35778;BME280;21899;42.662;23.316;2023-08-08T03:55:01;94439.44;;;16.00;100.00
35778;BME280;21899;42.662;23.316;2023-08-08T03:57:26;94439.63;;;16.09;100.00
35778;BME280;21899;42.662;23.316;2023-08-08T03:59:52;94432.50;;;15.99;100.00
35778;BME280;21899;42.662;23.316;2023-08-08T04:02:17;94435.19;;;15.99;100.00
35778;BME280;21899;42.662;23.316;2023-08-08T04:04:42;94445.97;;;16.18;100.00
35778;BME280;21899;42.662;23.316;2023-08-08T04:07:08;94457.06;;;16.24;100.00
35778;BME280;21899;42.662;23.316;2023-08-08T04:09:33;94458.91;;;16.27;100.00
35778;BME280;21899;42.662;23.316;2023-08-08T04:11:59;94458.84;;;16.30;100.00
35778;BME280;21899;42.662;23.316;2023-08-08T04:14:24;94477.69;;;16.34;100.00
35778;BME280;21899;42.662;23.316;2023-08-08T04:16:50;94472.00;;;16.28;100.00
35778;BME280;21899;42.662;23.316;2023-08-08T04:19:15;94481.81;;;16.38;100.00
35778;BME280;21899;42.662;23.316;2023-08-08T04:21:41;94481.63;;;16.49;100.00
35778;BME280;21899;42.662;23.316;2023-08-08T04:24:06;94479.53;;;16.37;100.00
35778;BME280;21899;42.662;23.316;2023-08-08T04:26:33;94481.34;;;16.43;100.00
35778;BME280;21899;42.662;23.316;2023-08-08T04:28:58;94493.81;;;16.57;100.00
35778;BME280;21899;42.662;23.316;2023-08-08T04:31:24;94489.50;;;16.59;100.00
35778;BME280;21899;42.662;23.316;2023-08-08T04:33:51;94499.94;;;16.77;100.00
35778;BME280;21899;42.662;23.316;2023-08-08T04:36:16;94493.13;;;16.53;100.00
35778;BME280;21899;42.662;23.316;2023-08-08T04:38:42;94501.50;;;16.58;100.00
35778;BME280;21899;42.662;23.316;2023-08-08T04:41:07;94493.81;;;16.57;100.00
35778;BME280;21899;42.662;23.316;2023-08-08T04:43:33;94487.06;;;16.65;100.00
35778;BME280;21899;42.662;23.316;2023-08-08T04:45:58;94485.50;;;16.83;100.00
35778;BME280;21899;42.662;23.316;2023-08-08T04:48:23;94478.81;;;17.04;100.00
35778;BME280;21899;42.662;23.316;2023-08-08T04:50:49;94481.84;;;17.22;100.00
35778;BME280;21899;42.662;23.316;2023-08-08T04:53:14;94477.81;;;17.30;100.00
35778;BME280;21899;42.662;23.316;2023-08-08T04:55:40;94491.50;;;17.23;100.00
35778;BME280;21899;42.662;23.316;2023-08-08T04:58:05;94506.19;;;17.22;100.00
35778;BME280;21899;42.662;23.316;2023-08-08T05:00:30;94500.13;;;17.18;100.00
35778;BME280;21899;42.662;23.316;2023-08-08T05:02:56;94501.56;;;17.07;100.00
35778;BME280;21899;42.662;23.316;2023-08-08T05:05:21;94524.97;;;17.13;100.00
35778;BME280;21899;42.662;23.316;2023-08-08T05:07:47;94525.47;;;17.08;100.00
35778;BME280;21899;42.662;23.316;2023-08-08T05:10:12;94530.88;;;17.24;100.00
35778;BME280;21899;42.662;23.316;2023-08-08T05:12:37;94537.22;;;17.34;100.00
35778;BME280;21899;42.662;23.316;2023-08-08T05:15:03;94545.44;;;17.30;100.00
35778;BME280;21899;42.662;23.316;2023-08-08T05:17:30;94542.47;;;17.41;100.00
35778;BME280;21899;42.662;23.316;2023-08-08T05:19:56;94544.09;;;17.54;100.00
35778;BME280;21899;42.662;23.316;2023-08-08T05:22:22;94558.59;;;17.92;100.00
35778;BME280;21899;42.662;23.316;2023-08-08T05:24:47;94560.53;;;18.08;100.00
35778;BME280;21899;42.662;23.316;2023-08-08T05:27:12;94554.03;;;18.18;98.66
35778;BME280;21899;42.662;23.316;2023-08-08T05:29:38;94555.00;;;17.83;99.89
35778;BME280;21899;42.662;23.316;2023-08-08T05:32:05;94562.88;;;17.77;100.00
35778;BME280;21899;42.662;23.316;2023-08-08T05:34:32;94565.59;;;18.06;100.00
35778;BME280;21899;42.662;23.316;2023-08-08T05:36:57;94569.94;;;18.61;96.77
35778;BME280;21899;42.662;23.316;2023-08-08T05:39:23;94581.28;;;18.97;95.43
35778;BME280;21899;42.662;23.316;2023-08-08T05:41:48;94583.47;;;19.02;93.18
35778;BME280;21899;42.662;23.316;2023-08-08T05:44:13;94583.81;;;19.29;93.15
35778;BME280;21899;42.662;23.316;2023-08-08T05:46:39;94580.22;;;19.57;91.19
35778;BME280;21899;42.662;23.316;2023-08-08T05:49:04;94590.75;;;19.55;90.00
35778;BME280;21899;42.662;23.316;2023-08-08T05:51:29;94594.06;;;19.84;88.61
35778;BME280;21899;42.662;23.316;2023-08-08T05:53:55;94584.94;;;19.91;87.34
35778;BME280;21899;42.662;23.316;2023-08-08T05:56:20;94581.16;;;19.88;87.38
35778;BME280;21899;42.662;23.316;2023-08-08T05:58:46;94600.84;;;19.67;87.25
35778;BME280;21899;42.662;23.316;2023-08-08T06:01:11;94616.88;;;19.24;89.43
35778;BME280;21899;42.662;23.316;2023-08-08T06:03:37;94623.16;;;18.96;92.75
35778;BME280;21899;42.662;23.316;2023-08-08T06:06:03;94629.44;;;18.93;93.79
35778;BME280;21899;42.662;23.316;2023-08-08T06:08:29;94630.31;;;18.90;94.18
35778;BME280;21899;42.662;23.316;2023-08-08T06:10:54;94611.50;;;18.70;94.41
35778;BME280;21899;42.662;23.316;2023-08-08T06:13:19;94606.97;;;18.23;96.80
35778;BME280;21899;42.662;23.316;2023-08-08T06:15:46;94602.06;;;18.17;98.04
35778;BME280;21899;42.662;23.316;2023-08-08T06:18:12;94619.19;;;18.14;98.59
35778;BME280;21899;42.662;23.316;2023-08-08T06:20:37;94611.72;;;18.18;97.67
35778;BME280;21899;42.662;23.316;2023-08-08T06:23:02;94606.75;;;18.30;97.59
35778;BME280;21899;42.662;23.316;2023-08-08T06:25:28;94597.63;;;18.23;98.22
35778;BME280;21899;42.662;23.316;2023-08-08T06:27:53;94596.94;;;18.36;95.20
35778;BME280;21899;42.662;23.316;2023-08-08T06:30:19;94600.75;;;18.67;94.97
35778;BME280;21899;42.662;23.316;2023-08-08T06:32:44;94604.97;;;18.68;91.96
35778;BME280;21899;42.662;23.316;2023-08-08T06:35:10;94598.38;;;18.69;89.77
35778;BME280;21899;42.662;23.316;2023-08-08T06:37:35;94602.41;;;18.77;90.37
35778;BME280;21899;42.662;23.316;2023-08-08T06:40:01;94588.50;;;18.75;90.21
35778;BME280;21899;42.662;23.316;2023-08-08T06:42:26;94597.47;;;19.00;89.79
35778;BME280;21899;42.662;23.316;2023-08-08T06:44:51;94590.97;;;19.35;87.84
35778;BME280;21899;42.662;23.316;2023-08-08T06:47:17;94590.75;;;19.68;83.95
35778;BME280;21899;42.662;23.316;2023-08-08T06:49:42;94596.38;;;19.73;82.85
35778;BME280;21899;42.662;23.316;2023-08-08T06:52:08;94606.50;;;19.60;83.38
35778;BME280;21899;42.662;23.316;2023-08-08T06:54:33;94600.72;;;19.20;81.21
35778;BME280;21899;42.662;23.316;2023-08-08T06:56:59;94605.13;;;18.77;80.09
35778;BME280;21899;42.662;23.316;2023-08-08T06:59:25;94605.66;;;18.84;80.74
35778;BME280;21899;42.662;23.316;2023-08-08T07:01:50;94608.59;;;18.77;79.10
35778;BME280;21899;42.662;23.316;2023-08-08T07:04:16;94587.03;;;18.58;78.41
35778;BME280;21899;42.662;23.316;2023-08-08T07:06:43;94612.13;;;18.74;75.68
35778;BME280;21899;42.662;23.316;2023-08-08T07:09:10;94602.16;;;18.71;79.41
35778;BME280;21899;42.662;23.316;2023-08-08T07:11:37;94612.53;;;18.89;78.33
35778;BME280;21899;42.662;23.316;2023-08-08T07:14:03;94608.91;;;18.79;79.42
35778;BME280;21899;42.662;23.316;2023-08-08T07:16:28;94602.50;;;18.45;77.74
35778;BME280;21899;42.662;23.316;2023-08-08T07:18:54;94595.72;;;18.53;78.75
35778;BME280;21899;42.662;23.316;2023-08-08T07:21:19;94607.50;;;18.75;79.23
35778;BME280;21899;42.662;23.316;2023-08-08T07:23:45;94595.91;;;18.87;79.23
35778;BME280;21899;42.662;23.316;2023-08-08T07:26:11;94607.31;;;18.53;77.04
35778;BME280;21899;42.662;23.316;2023-08-08T07:28:36;94611.31;;;18.49;77.77
35778;BME280;21899;42.662;23.316;2023-08-08T07:31:01;94603.00;;;18.56;78.49
35778;BME280;21899;42.662;23.316;2023-08-08T07:33:27;94599.25;;;18.66;75.92
35778;BME280;21899;42.662;23.316;2023-08-08T07:35:52;94614.63;;;18.69;74.39
35778;BME280;21899;42.662;23.316;2023-08-08T07:38:18;94621.38;;;18.77;74.05
35778;BME280;21899;42.662;23.316;2023-08-08T07:40:43;94599.53;;;18.55;76.14
35778;BME280;21899;42.662;23.316;2023-08-08T07:43:09;94598.19;;;18.76;75.60
35778;BME280;21899;42.662;23.316;2023-08-08T07:45:34;94622.31;;;18.99;75.30
35778;BME280;21899;42.662;23.316;2023-08-08T07:47:59;94620.09;;;18.81;73.69
35778;BME280;21899;42.662;23.316;2023-08-08T07:50:25;94619.47;;;19.02;73.94
35778;BME280;21899;42.662;23.316;2023-08-08T07:52:50;94615.03;;;19.08;72.70
35778;BME280;21899;42.662;23.316;2023-08-08T07:55:16;94606.47;;;19.10;71.10
35778;BME280;21899;42.662;23.316;2023-08-08T07:57:41;94616.00;;;19.14;70.14
35778;BME280;21899;42.662;23.316;2023-08-08T08:00:07;94605.06;;;19.18;70.98
35778;BME280;21899;42.662;23.316;2023-08-08T08:02:44;94596.28;;;19.39;69.42
35778;BME280;21899;42.662;23.316;2023-08-08T08:05:10;94605.84;;;19.56;69.72
35778;BME280;21899;42.662;23.316;2023-08-08T08:07:36;94603.88;;;19.69;69.46
35778;BME280;21899;42.662;23.316;2023-08-08T08:10:03;94607.09;;;19.89;68.38
35778;BME280;21899;42.662;23.316;2023-08-08T08:12:29;94598.31;;;19.85;64.18
35778;BME280;21899;42.662;23.316;2023-08-08T08:14:55;94612.56;;;19.64;66.26
35778;BME280;21899;42.662;23.316;2023-08-08T08:17:20;94614.22;;;19.62;68.27
35778;BME280;21899;42.662;23.316;2023-08-08T08:19:46;94599.53;;;19.59;70.01
35778;BME280;21899;42.662;23.316;2023-08-08T08:22:11;94585.72;;;19.79;70.27
35778;BME280;21899;42.662;23.316;2023-08-08T08:24:36;94601.38;;;20.21;68.36
35778;BME280;21899;42.662;23.316;2023-08-08T08:27:02;94608.03;;;20.20;67.38
35778;BME280;21899;42.662;23.316;2023-08-08T08:29:27;94631.13;;;20.37;66.74
35778;BME280;21899;42.662;23.316;2023-08-08T08:31:53;94615.06;;;20.30;64.76
35778;BME280;21899;42.662;23.316;2023-08-08T08:34:18;94605.47;;;20.38;63.66
35778;BME280;21899;42.662;23.316;2023-08-08T08:36:43;94612.66;;;20.32;63.55
35778;BME280;21899;42.662;23.316;2023-08-08T08:39:09;94609.81;;;19.89;64.52
35778;BME280;21899;42.662;23.316;2023-08-08T08:41:35;94616.44;;;20.01;65.86
35778;BME280;21899;42.662;23.316;2023-08-08T08:44:04;94600.25;;;19.97;66.24
35778;BME280;21899;42.662;23.316;2023-08-08T08:46:30;94612.72;;;20.07;65.37
35778;BME280;21899;42.662;23.316;2023-08-08T08:48:58;94617.47;;;20.28;66.58
35778;BME280;21899;42.662;23.316;2023-08-08T08:51:25;94627.72;;;20.24;64.42
35778;BME280;21899;42.662;23.316;2023-08-08T08:53:51;94607.28;;;20.07;65.17
35778;BME280;21899;42.662;23.316;2023-08-08T08:56:17;94615.38;;;20.32;64.95
35778;BME280;21899;42.662;23.316;2023-08-08T08:58:43;94616.44;;;20.35;65.37
35778;BME280;21899;42.662;23.316;2023-08-08T09:01:11;94597.38;;;20.26;64.55
35778;BME280;21899;42.662;23.316;2023-08-08T09:03:37;94604.44;;;20.23;64.09
35778;BME280;21899;42.662;23.316;2023-08-08T09:06:03;94613.28;;;20.36;63.49
35778;BME280;21899;42.662;23.316;2023-08-08T09:08:29;94611.28;;;20.49;62.87
35778;BME280;21899;42.662;23.316;2023-08-08T09:10:55;94614.19;;;20.55;63.71
35778;BME280;21899;42.662;23.316;2023-08-08T09:13:22;94606.91;;;20.30;64.81
35778;BME280;21899;42.662;23.316;2023-08-08T09:15:48;94610.31;;;20.09;65.33
35778;BME280;21899;42.662;23.316;2023-08-08T09:18:14;94609.03;;;20.01;64.11
35778;BME280;21899;42.662;23.316;2023-08-08T09:20:40;94617.06;;;20.17;63.99
35778;BME280;21899;42.662;23.316;2023-08-08T09:23:05;94599.69;;;20.02;64.17
35778;BME280;21899;42.662;23.316;2023-08-08T09:25:31;94597.09;;;20.33;62.95
35778;BME280;21899;42.662;23.316;2023-08-08T09:27:56;94611.78;;;20.35;61.98
35778;BME280;21899;42.662;23.316;2023-08-08T09:30:22;94608.69;;;20.12;62.38
35778;BME280;21899;42.662;23.316;2023-08-08T09:32:47;94623.78;;;20.13;63.68
35778;BME280;21899;42.662;23.316;2023-08-08T09:35:13;94626.44;;;19.91;62.96
35778;BME280;21899;42.662;23.316;2023-08-08T09:37:38;94650.16;;;19.78;64.71
35778;BME280;21899;42.662;23.316;2023-08-08T09:40:05;94627.34;;;19.38;64.44
35778;BME280;21899;42.662;23.316;2023-08-08T09:42:33;94622.78;;;19.73;64.71
35778;BME280;21899;42.662;23.316;2023-08-08T09:44:59;94623.00;;;19.78;63.73
35778;BME280;21899;42.662;23.316;2023-08-08T09:47:25;94635.66;;;20.19;63.81
35778;BME280;21899;42.662;23.316;2023-08-08T09:50:00;94629.59;;;20.36;61.78
35778;BME280;21899;42.662;23.316;2023-08-08T09:52:27;94633.47;;;20.48;60.57
35778;BME280;21899;42.662;23.316;2023-08-08T09:54:53;94635.75;;;20.28;59.38
35778;BME280;21899;42.662;23.316;2023-08-08T09:57:19;94631.50;;;20.27;61.27
35778;BME280;21899;42.662;23.316;2023-08-08T09:59:45;94618.34;;;20.25;60.53
35778;BME280;21899;42.662;23.316;2023-08-08T10:02:14;94627.03;;;20.54;60.57
35778;BME280;21899;42.662;23.316;2023-08-08T10:04:41;94625.34;;;20.69;59.00
35778;BME280;21899;42.662;23.316;2023-08-08T10:07:07;94628.00;;;20.82;58.48
35778;BME280;21899;42.662;23.316;2023-08-08T10:09:33;94621.03;;;21.03;57.71
35778;BME280;21899;42.662;23.316;2023-08-08T10:11:59;94622.16;;;20.93;55.39
35778;BME280;21899;42.662;23.316;2023-08-08T10:14:32;94617.22;;;21.22;53.68
35778;BME280;21899;42.662;23.316;2023-08-08T10:17:02;94617.31;;;21.40;53.29
35778;BME280;21899;42.662;23.316;2023-08-08T10:19:27;94619.03;;;21.55;52.77
35778;BME280;21899;42.662;23.316;2023-08-08T10:22:03;94609.03;;;21.52;52.18
35778;BME280;21899;42.662;23.316;2023-08-08T10:24:35;94614.97;;;21.20;54.23
35778;BME280;21899;42.662;23.316;2023-08-08T10:27:01;94622.03;;;21.18;54.63
35778;BME280;21899;42.662;23.316;2023-08-08T10:29:30;94621.31;;;20.74;55.82
35778;BME280;21899;42.662;23.316;2023-08-08T10:32:01;94611.72;;;20.69;55.90
35778;BME280;21899;42.662;23.316;2023-08-08T10:34:36;94618.44;;;20.77;55.21
35778;BME280;21899;42.662;23.316;2023-08-08T10:37:05;94607.69;;;20.52;55.35
35778;BME280;21899;42.662;23.316;2023-08-08T10:39:31;94613.06;;;20.65;56.32
35778;BME280;21899;42.662;23.316;2023-08-08T10:42:01;94600.94;;;20.79;55.76
35778;BME280;21899;42.662;23.316;2023-08-08T10:44:28;94607.88;;;20.58;56.44
35778;BME280;21899;42.662;23.316;2023-08-08T10:46:53;94582.09;;;20.62;56.78
35778;BME280;21899;42.662;23.316;2023-08-08T10:49:20;94609.13;;;20.88;56.11
35778;BME280;21899;42.662;23.316;2023-08-08T10:51:47;94594.81;;;20.96;55.14
35778;BME280;21899;42.662;23.316;2023-08-08T10:54:23;94588.78;;;20.92;55.10
35778;BME280;21899;42.662;23.316;2023-08-08T10:56:57;94592.06;;;21.09;54.96
35778;BME280;21899;42.662;23.316;2023-08-08T10:59:26;94590.91;;;21.19;54.66
35778;BME280;21899;42.662;23.316;2023-08-08T11:01:53;94591.97;;;21.21;54.26
35778;BME280;21899;42.662;23.316;2023-08-08T11:04:20;94595.69;;;21.45;54.67
35778;BME280;21899;42.662;23.316;2023-08-08T11:06:47;94577.13;;;21.53;53.82
35778;BME280;21899;42.662;23.316;2023-08-08T11:09:13;94584.69;;;21.58;53.12
35778;BME280;21899;42.662;23.316;2023-08-08T11:11:41;94593.59;;;21.49;53.52
35778;BME280;21899;42.662;23.316;2023-08-08T11:14:11;94581.19;;;21.48;53.26
35778;BME280;21899;42.662;23.316;2023-08-08T11:16:37;94588.47;;;21.60;53.25
35778;BME280;21899;42.662;23.316;2023-08-08T11:19:03;94603.44;;;21.47;52.92
35778;BME280;21899;42.662;23.316;2023-08-08T11:21:28;94598.41;;;21.45;52.48
35778;BME280;21899;42.662;23.316;2023-08-08T11:23:53;94584.97;;;21.51;53.02
35778;BME280;21899;42.662;23.316;2023-08-08T11:26:20;94576.53;;;21.67;52.83
35778;BME280;21899;42.662;23.316;2023-08-08T11:28:50;94570.41;;;21.93;52.68
35778;BME280;21899;42.662;23.316;2023-08-08T11:31:16;94585.38;;;21.80;52.71
35778;BME280;21899;42.662;23.316;2023-08-08T11:33:42;94573.28;;;21.81;52.83
35778;BME280;21899;42.662;23.316;2023-08-08T11:36:08;94584.19;;;21.90;52.17
35778;BME280;21899;42.662;23.316;2023-08-08T11:38:34;94586.00;;;21.84;52.42
35778;BME280;21899;42.662;23.316;2023-08-08T11:41:00;94577.69;;;21.96;52.14
35778;BME280;21899;42.662;23.316;2023-08-08T11:43:25;94564.41;;;22.08;51.70
35778;BME280;21899;42.662;23.316;2023-08-08T11:45:52;94568.78;;;22.14;51.86
35778;BME280;21899;42.662;23.316;2023-08-08T11:48:20;94580.34;;;21.69;52.33
35778;BME280;21899;42.662;23.316;2023-08-08T11:50:46;94571.25;;;21.63;52.85
35778;BME280;21899;42.662;23.316;2023-08-08T11:53:12;94583.97;;;21.75;53.84
35778;BME280;21899;42.662;23.316;2023-08-08T11:55:37;94555.72;;;21.82;52.44
35778;BME280;21899;42.662;23.316;2023-08-08T11:58:03;94563.47;;;22.11;52.72
35778;BME280;21899;42.662;23.316;2023-08-08T12:00:30;94554.25;;;22.17;50.62
35778;BME280;21899;42.662;23.316;2023-08-08T12:02:56;94566.97;;;22.47;51.63
35778;BME280;21899;42.662;23.316;2023-08-08T12:05:23;94563.22;;;22.54;51.49
35778;BME280;21899;42.662;23.316;2023-08-08T12:07:49;94567.59;;;22.60;51.20
35778;BME280;21899;42.662;23.316;2023-08-08T12:10:20;94566.06;;;22.50;46.31
35778;BME280;21899;42.662;23.316;2023-08-08T12:12:47;94562.88;;;22.34;45.99
35778;BME280;21899;42.662;23.316;2023-08-08T12:15:17;94547.56;;;22.18;46.25
35778;BME280;21899;42.662;23.316;2023-08-08T12:17:43;94544.84;;;22.18;45.71
35778;BME280;21899;42.662;23.316;2023-08-08T12:20:08;94546.38;;;22.37;45.70
35778;BME280;21899;42.662;23.316;2023-08-08T12:22:35;94555.63;;;22.31;46.01
35778;BME280;21899;42.662;23.316;2023-08-08T12:25:01;94540.00;;;22.22;46.17
35778;BME280;21899;42.662;23.316;2023-08-08T12:27:28;94531.19;;;22.45;46.20
35778;BME280;21899;42.662;23.316;2023-08-08T12:29:54;94548.19;;;22.67;45.99
35778;BME280;21899;42.662;23.316;2023-08-08T12:32:20;94537.25;;;22.76;46.00
35778;BME280;21899;42.662;23.316;2023-08-08T12:34:49;94535.84;;;22.90;45.45
35778;BME280;21899;42.662;23.316;2023-08-08T12:37:15;94534.16;;;23.01;45.22
35778;BME280;21899;42.662;23.316;2023-08-08T12:39:40;94541.72;;;23.06;45.36